createdAt,value
2022-11-16T00:00:15.924Z,90605.56
2022-11-16T00:02:42.217Z,90606.28
2022-11-16T00:05:08.533Z,90602.81
2022-11-16T00:07:35.107Z,90608.84
2022-11-16T00:10:01.577Z,90605.34
2022-11-16T00:12:27.993Z,90606.94
2022-11-16T00:15:00.422Z,90602.53
2022-11-16T00:17:30.635Z,90604.88
2022-11-16T00:19:58.038Z,90599.91
2022-11-16T00:25:13.616Z,90599.94
2022-11-16T00:27:39.906Z,90599.97
2022-11-16T00:30:10.392Z,90605.06
2022-11-16T00:32:49.850Z,90597.31
2022-11-16T00:35:16.296Z,90602.50
2022-11-16T00:37:42.657Z,90607.31
2022-11-16T00:40:09.869Z,90613.13
2022-11-16T00:42:36.122Z,90612.22
2022-11-16T00:45:02.535Z,90613.22
2022-11-16T00:47:28.835Z,90619.66
2022-11-16T00:49:55.100Z,90608.59
2022-11-16T00:52:21.289Z,90604.66
2022-11-16T00:54:47.583Z,90603.16
2022-11-16T00:57:13.769Z,90598.69
2022-11-16T00:59:39.983Z,90601.50
2022-11-16T01:02:06.182Z,90604.41
2022-11-16T01:04:32.399Z,90604.56
2022-11-16T01:06:58.650Z,90605.28
2022-11-16T01:09:24.888Z,90605.13
2022-11-16T01:11:51.084Z,90613.41
2022-11-16T01:14:17.408Z,90627.44
2022-11-16T01:16:43.675Z,90630.91
2022-11-16T01:19:09.881Z,90627.91
2022-11-16T01:21:36.091Z,90641.38
2022-11-16T01:24:02.297Z,90638.16
2022-11-16T01:26:28.477Z,90641.03
2022-11-16T01:28:54.681Z,90647.22
2022-11-16T01:31:20.948Z,90646.63
2022-11-16T01:33:47.209Z,90652.41
2022-11-16T01:36:13.424Z,90657.00
2022-11-16T01:38:39.638Z,90664.06
2022-11-16T01:41:05.951Z,90665.50
2022-11-16T01:43:32.178Z,90675.16
2022-11-16T01:45:58.356Z,90678.47
2022-11-16T01:48:24.670Z,90687.00
2022-11-16T01:50:50.958Z,90684.13
2022-11-16T01:53:17.231Z,90694.50
2022-11-16T01:55:43.540Z,90693.03
2022-11-16T01:58:09.801Z,90692.81
2022-11-16T02:00:35.994Z,90686.91
2022-11-16T02:03:02.211Z,90688.81
2022-11-16T02:05:28.439Z,90690.66
2022-11-16T02:07:54.725Z,90676.28
2022-11-16T02:10:20.918Z,90677.41
2022-11-16T02:12:47.137Z,90668.47
2022-11-16T02:15:13.439Z,90664.44
2022-11-16T02:17:39.717Z,90663.31
2022-11-16T02:20:08.750Z,90652.22
2022-11-16T02:22:38.080Z,90643.03
2022-11-16T02:25:09.473Z,90634.97
2022-11-16T02:27:38.965Z,90633.94
2022-11-16T02:30:05.259Z,90631.69
2022-11-16T02:32:31.504Z,90643.59
2022-11-16T02:34:57.761Z,90647.00
2022-11-16T02:37:24.004Z,90645.44
2022-11-16T02:39:50.365Z,90646.19
2022-11-16T02:42:16.635Z,90650.44
2022-11-16T02:44:42.911Z,90648.72
2022-11-16T02:47:09.149Z,90652.97
2022-11-16T02:49:35.406Z,90652.47
2022-11-16T02:52:01.635Z,90648.81
2022-11-16T02:54:27.967Z,90646.47
2022-11-16T02:56:54.289Z,90646.00
2022-11-16T02:59:20.523Z,90651.44
2022-11-16T03:01:46.761Z,90659.50
2022-11-16T03:04:13.029Z,90652.75
2022-11-16T03:06:39.329Z,90646.41
2022-11-16T03:09:05.618Z,90649.63
2022-11-16T03:11:31.860Z,90653.00
2022-11-16T03:13:58.305Z,90645.16
2022-11-16T03:16:24.642Z,90638.25
2022-11-16T03:18:50.851Z,90653.00
2022-11-16T03:21:17.045Z,90647.28
2022-11-16T03:23:43.252Z,90646.53
2022-11-16T03:26:09.464Z,90640.88
2022-11-16T03:28:35.901Z,90643.66
2022-11-16T03:31:02.439Z,90638.50
2022-11-16T03:33:28.761Z,90644.63
2022-11-16T03:35:55.126Z,90647.69
2022-11-16T03:38:21.500Z,90628.81
2022-11-16T03:40:48.071Z,90614.28
2022-11-16T03:43:14.319Z,90610.53
2022-11-16T03:45:43.122Z,90611.25
2022-11-16T03:48:09.348Z,90606.81
2022-11-16T03:50:35.654Z,90601.84
2022-11-16T03:53:01.871Z,90585.88
2022-11-16T03:55:28.140Z,90583.00
2022-11-16T03:57:54.418Z,90586.78
2022-11-16T04:00:20.660Z,90579.44
2022-11-16T04:02:51.139Z,90547.78
2022-11-16T04:05:17.409Z,90553.16
2022-11-16T04:07:43.627Z,90579.69
2022-11-16T04:10:09.910Z,90577.59
2022-11-16T04:12:36.217Z,90560.47
2022-11-16T04:15:02.509Z,90557.56
2022-11-16T04:17:37.601Z,90573.19
2022-11-16T04:20:03.882Z,90566.16
2022-11-16T04:22:33.270Z,90558.28
2022-11-16T04:24:59.538Z,90523.94
2022-11-16T04:27:36.057Z,90525.13
2022-11-16T04:30:02.490Z,90525.91
2022-11-16T04:32:31.560Z,90529.78
2022-11-16T04:35:02.350Z,90525.63
2022-11-16T04:37:28.721Z,90520.88
2022-11-16T04:39:54.910Z,90516.16
2022-11-16T04:42:21.151Z,90511.75
2022-11-16T04:44:47.428Z,90514.88
2022-11-16T04:47:13.634Z,90508.13
2022-11-16T04:49:39.903Z,90492.16
2022-11-16T04:52:06.131Z,90499.16
2022-11-16T04:54:32.344Z,90510.69
2022-11-16T04:56:58.636Z,90514.06
2022-11-16T04:59:24.985Z,90514.09
2022-11-16T05:01:51.282Z,90506.78
2022-11-16T05:04:20.034Z,90507.69
2022-11-16T05:06:46.270Z,90511.28
2022-11-16T05:09:12.493Z,90520.38
2022-11-16T05:11:38.808Z,90515.09
2022-11-16T05:14:05.164Z,90514.22
2022-11-16T05:16:31.371Z,90509.25
2022-11-16T05:18:57.611Z,90513.19
2022-11-16T05:21:23.932Z,90519.56
2022-11-16T05:23:50.320Z,90521.06
2022-11-16T05:26:16.555Z,90534.84
2022-11-16T05:28:42.736Z,90536.03
2022-11-16T05:31:09.038Z,90547.50
2022-11-16T05:33:35.305Z,90548.44
2022-11-16T05:36:01.591Z,90544.91
2022-11-16T05:38:27.854Z,90553.50
2022-11-16T05:40:54.108Z,90550.22
2022-11-16T05:43:20.337Z,90546.28
2022-11-16T05:45:46.546Z,90550.81
2022-11-16T05:48:12.772Z,90543.19
2022-11-16T05:50:42.785Z,90544.91
2022-11-16T05:53:09.521Z,90547.31
2022-11-16T05:55:36.938Z,90553.81
2022-11-16T05:58:04.786Z,90550.56
2022-11-16T06:00:31.031Z,90551.22
2022-11-16T06:02:57.323Z,90550.56
2022-11-16T06:05:23.590Z,90555.22
2022-11-16T06:07:49.875Z,90556.88
2022-11-16T06:10:17.246Z,90554.41
2022-11-16T06:12:43.708Z,90555.47
2022-11-16T06:15:10.061Z,90551.97
2022-11-16T06:17:36.321Z,90546.75
2022-11-16T06:20:03.793Z,90555.28
2022-11-16T06:22:30.968Z,90558.50
2022-11-16T06:25:00.169Z,90562.66
2022-11-16T06:27:26.389Z,90559.16
2022-11-16T06:29:52.616Z,90563.59
2022-11-16T06:32:18.780Z,90563.63
2022-11-16T06:34:44.977Z,90564.63
2022-11-16T06:37:13.748Z,90559.19
2022-11-16T06:42:15.917Z,90554.50
2022-11-16T06:44:45.689Z,90554.19
2022-11-16T06:47:12.602Z,90555.19
2022-11-16T06:49:41.778Z,90550.28
2022-11-16T06:52:08.134Z,90559.97
2022-11-16T06:54:35.660Z,90560.63
2022-11-16T06:57:04.352Z,90558.47
2022-11-16T06:59:30.639Z,90569.56
2022-11-16T07:01:59.766Z,90566.25
2022-11-16T07:04:26.168Z,90569.28
2022-11-16T07:06:52.618Z,90571.34
2022-11-16T07:09:18.867Z,90575.06
2022-11-16T07:11:45.067Z,90577.97
2022-11-16T07:14:12.648Z,90573.28
2022-11-16T07:16:38.864Z,90587.53
2022-11-16T07:27:29.365Z,90590.50
2022-11-16T07:29:55.577Z,90589.69
2022-11-16T07:32:24.549Z,90591.06
2022-11-16T07:34:50.871Z,90596.28
2022-11-16T10:00:18.730Z,90586.66
2022-11-16T10:02:44.905Z,90589.69
2022-11-16T10:10:28.690Z,90576.72
2022-11-16T12:19:42.385Z,90441.22
2022-11-16T12:32:55.574Z,90393.66
2022-11-16T17:13:42.480Z,90330.28
2022-11-16T18:01:57.610Z,90312.06
2022-11-16T18:04:24.656Z,90316.78
2022-11-16T18:55:27.541Z,90283.53
2022-11-16T19:03:22.221Z,90287.44
2022-11-16T19:08:22.921Z,90293.50
2022-11-16T19:10:52.239Z,90294.63
2022-11-16T19:26:41.929Z,90299.66
2022-11-16T19:31:38.626Z,90279.63
2022-11-16T19:34:07.615Z,90272.94
2022-11-16T19:36:36.022Z,90270.97
2022-11-16T19:39:02.207Z,90273.69
2022-11-16T19:41:28.439Z,90281.03
2022-11-16T19:43:54.894Z,90276.84
2022-11-16T19:48:48.708Z,90274.16
2022-11-16T19:51:14.979Z,90276.97
2022-11-16T19:53:41.178Z,90279.28
2022-11-16T19:56:07.483Z,90285.28
2022-11-16T19:58:33.711Z,90273.44
2022-11-16T20:01:02.121Z,90276.25
2022-11-16T20:03:28.524Z,90269.34
2022-11-16T20:05:54.768Z,90283.03
2022-11-16T20:08:27.880Z,90288.06
2022-11-16T20:32:20.569Z,90245.13
2022-11-16T20:45:31.645Z,90240.59
2022-11-16T20:47:58.994Z,90238.69
2022-11-16T20:50:28.296Z,90235.94
2022-11-16T21:20:26.968Z,90232.19
2022-11-16T21:23:00.016Z,90234.06
2022-11-16T21:25:28.079Z,90236.19
2022-11-16T21:27:54.362Z,90240.94
2022-11-16T21:30:20.556Z,90239.41
2022-11-16T21:32:47.292Z,90238.03
2022-11-16T21:35:21.425Z,90226.28
2022-11-16T21:48:44.237Z,90205.56
2022-11-16T22:07:15.872Z,90215.16
2022-11-16T22:20:37.305Z,90202.69
2022-11-16T22:31:02.620Z,90186.81
2022-11-16T22:44:09.385Z,90214.75
2022-11-16T22:49:18.254Z,90220.34
2022-11-16T22:51:47.760Z,90201.19
2022-11-16T22:54:14.470Z,90220.38
2022-11-16T23:23:41.035Z,90260.91
2022-11-16T23:50:24.334Z,90240.34
2022-11-16T23:55:32.666Z,90220.94
2022-11-16T23:58:00.549Z,90218.78
